createdAt,value
2019-05-18T00:01:54.979Z,7.27
2019-05-18T00:04:25.360Z,6.37
2019-05-18T00:06:56.763Z,6.47
2019-05-18T00:09:27.179Z,7.13
2019-05-18T00:11:57.603Z,6.50
2019-05-18T00:14:29.622Z,6.30
2019-05-18T00:17:01.018Z,6.50
2019-05-18T00:19:31.378Z,6.70
2019-05-18T00:22:02.708Z,6.57
2019-05-18T00:24:33.063Z,5.57
2019-05-18T00:27:03.477Z,5.70
2019-05-18T00:29:35.534Z,5.57
2019-05-18T00:32:05.941Z,5.70
2019-05-18T00:34:36.375Z,5.53
2019-05-18T00:37:06.721Z,5.83
2019-05-18T00:39:37.099Z,6.47
2019-05-18T00:42:07.407Z,6.80
2019-05-18T00:44:37.806Z,7.97
2019-05-18T00:47:08.166Z,8.30
2019-05-18T00:49:38.528Z,8.70
2019-05-18T00:52:08.887Z,9.07
2019-05-18T00:54:39.331Z,9.10
2019-05-18T00:57:09.712Z,9.90
2019-05-18T00:59:40.032Z,9.63
2019-05-18T01:02:10.416Z,9.80
2019-05-18T01:04:40.786Z,9.63
2019-05-18T01:07:11.157Z,8.70
2019-05-18T01:09:41.468Z,7.20
2019-05-18T01:12:11.839Z,7.90
2019-05-18T01:14:42.161Z,7.93
2019-05-18T01:17:14.628Z,8.23
2019-05-18T01:19:45.003Z,8.07
2019-05-18T01:22:15.403Z,7.80
2019-05-18T01:24:45.775Z,7.87
2019-05-18T01:27:17.637Z,7.77
2019-05-18T01:29:47.979Z,7.90
2019-05-18T01:32:19.108Z,7.03
2019-05-18T01:34:54.153Z,7.40
2019-05-18T01:37:24.465Z,6.90
2019-05-18T01:39:54.974Z,8.20
2019-05-18T01:42:25.295Z,8.10
2019-05-18T01:45:15.398Z,7.77
2019-05-18T01:47:34.104Z,8.17
2019-05-18T01:50:13.088Z,7.83
2019-05-18T01:52:43.402Z,8.70
2019-05-18T01:55:14.325Z,8.70
2019-05-18T01:57:44.693Z,9.10
2019-05-18T02:00:16.221Z,9.40
2019-05-18T02:02:46.589Z,8.97
2019-05-18T02:05:16.916Z,9.10
2019-05-18T02:07:47.298Z,9.70
2019-05-18T02:10:18.218Z,10.30
2019-05-18T02:12:48.598Z,9.73
2019-05-18T02:15:19.126Z,9.83
2019-05-18T02:17:49.521Z,9.77
2019-05-18T02:20:19.987Z,10.17
2019-05-18T02:22:50.256Z,10.13
2019-05-18T02:25:20.710Z,10.70
2019-05-18T02:27:51.075Z,10.67
2019-05-18T02:30:21.559Z,10.47
2019-05-18T02:32:51.888Z,10.90
2019-05-18T02:35:22.252Z,10.27
2019-05-18T02:37:55.995Z,10.77
2019-05-18T02:40:26.367Z,10.30
2019-05-18T02:42:56.690Z,10.30
2019-05-18T02:45:27.056Z,10.80
2019-05-18T02:47:57.467Z,10.87
2019-05-18T02:50:30.437Z,10.37
2019-05-18T02:53:00.760Z,11.03
2019-05-18T02:55:31.186Z,11.17
2019-05-18T02:58:01.650Z,11.20
2019-05-18T03:00:32.042Z,11.03
2019-05-18T03:03:02.543Z,10.90
2019-05-18T03:05:33.157Z,10.43
2019-05-18T03:08:03.585Z,10.60
2019-05-18T03:10:34.139Z,10.87
2019-05-18T03:13:05.706Z,11.30
2019-05-18T03:15:36.182Z,10.67
2019-05-18T03:18:06.793Z,10.83
2019-05-18T03:20:37.203Z,11.37
2019-05-18T03:23:08.711Z,10.97
2019-05-18T03:25:39.031Z,11.13
2019-05-18T03:28:09.427Z,11.47
2019-05-18T03:30:39.772Z,11.60
2019-05-18T03:33:10.220Z,11.10
2019-05-18T03:35:40.537Z,11.73
2019-05-18T03:38:10.933Z,10.53
2019-05-18T03:40:41.290Z,11.50
2019-05-18T03:43:11.689Z,10.80
2019-05-18T03:45:42.078Z,11.37
2019-05-18T03:48:12.431Z,11.17
2019-05-18T03:50:44.107Z,10.32
2019-05-18T03:53:18.028Z,10.23
2019-05-18T03:55:46.401Z,9.80
2019-05-18T03:58:16.852Z,10.33
2019-05-18T04:00:47.339Z,10.30
2019-05-18T04:03:17.676Z,10.10
2019-05-18T04:05:48.115Z,9.73
2019-05-18T04:08:18.419Z,9.37
2019-05-18T04:10:48.793Z,9.87
2019-05-18T04:13:19.131Z,9.90
2019-05-18T04:15:49.506Z,10.17
2019-05-18T04:18:19.904Z,9.50
2019-05-18T04:20:50.266Z,10.30
2019-05-18T04:23:20.696Z,9.80
2019-05-18T04:25:51.131Z,9.63
2019-05-18T04:28:21.456Z,9.90
2019-05-18T04:30:51.822Z,9.83
2019-05-18T04:33:22.227Z,10.70
2019-05-18T04:35:52.596Z,11.20
2019-05-18T04:38:22.989Z,10.90
2019-05-18T04:40:53.364Z,10.13
2019-05-18T04:43:23.706Z,11.20
2019-05-18T04:45:54.075Z,10.30
2019-05-18T04:48:24.396Z,10.87
2019-05-18T04:50:54.756Z,10.83
2019-05-18T04:53:25.080Z,10.83
2019-05-18T04:55:55.458Z,10.63
2019-05-18T04:58:25.884Z,10.93
2019-05-18T05:00:56.261Z,11.73
2019-05-18T05:03:27.669Z,11.20
2019-05-18T05:05:58.031Z,11.33
2019-05-18T05:08:28.355Z,11.43
2019-05-18T05:10:58.743Z,11.40
2019-05-18T05:13:29.067Z,11.07
2019-05-18T05:15:59.499Z,10.33
2019-05-18T05:18:29.836Z,10.47
2019-05-18T05:21:00.251Z,10.83
2019-05-18T05:23:30.671Z,10.33
2019-05-18T05:26:01.027Z,11.00
2019-05-18T05:28:32.358Z,10.77
2019-05-18T05:31:02.825Z,10.90
2019-05-18T05:33:33.202Z,11.33
2019-05-18T05:36:04.527Z,10.17
2019-05-18T05:38:34.914Z,10.47
2019-05-18T05:41:05.280Z,11.60
2019-05-18T05:43:35.664Z,12.33
2019-05-18T05:46:06.071Z,12.17
2019-05-18T05:48:36.459Z,11.90
2019-05-18T05:51:06.805Z,11.37
2019-05-18T05:53:37.214Z,10.30
2019-05-18T05:56:07.591Z,9.80
2019-05-18T05:58:38.068Z,8.07
2019-05-18T06:01:08.491Z,9.50
2019-05-18T06:03:38.918Z,9.53
2019-05-18T06:06:09.427Z,10.00
2019-05-18T06:08:39.808Z,8.70
2019-05-18T06:11:10.162Z,8.77
2019-05-18T06:13:42.273Z,8.90
2019-05-18T06:16:12.555Z,9.17
2019-05-18T06:18:42.922Z,8.43
2019-05-18T06:21:13.301Z,8.23
2019-05-18T06:23:43.655Z,7.77
2019-05-18T06:26:13.985Z,7.40
2019-05-18T06:28:44.335Z,8.17
2019-05-18T06:31:14.688Z,7.90
2019-05-18T06:33:45.018Z,9.27
2019-05-18T06:36:15.475Z,8.87
2019-05-18T06:38:45.898Z,8.20
2019-05-18T06:41:16.279Z,8.40
2019-05-18T06:43:46.656Z,8.03
2019-05-18T06:46:17.027Z,8.57
2019-05-18T06:48:47.419Z,7.93
2019-05-18T06:51:17.743Z,7.97
2019-05-18T06:53:48.163Z,8.20
2019-05-18T06:56:19.667Z,7.50
2019-05-18T06:58:51.571Z,6.80
2019-05-18T07:01:22.004Z,7.23
2019-05-18T07:03:52.639Z,5.80
2019-05-18T07:06:23.046Z,5.70
2019-05-18T07:08:53.602Z,6.40
2019-05-18T07:11:24.082Z,6.90
2019-05-18T07:13:54.468Z,7.30
2019-05-18T07:16:24.894Z,8.07
2019-05-18T07:18:55.376Z,7.30
2019-05-18T07:21:27.595Z,8.03
2019-05-18T07:23:58.035Z,8.03
2019-05-18T07:26:28.368Z,8.27
2019-05-18T07:28:58.751Z,7.33
2019-05-18T07:31:29.251Z,6.20
2019-05-18T07:33:59.578Z,6.67
2019-05-18T07:36:30.003Z,6.87
2019-05-18T07:39:00.483Z,6.30
2019-05-18T07:41:45.562Z,5.47
2019-05-18T07:44:03.471Z,4.70
2019-05-18T07:46:33.842Z,5.60
2019-05-18T07:49:04.179Z,5.20
2019-05-18T07:51:37.221Z,5.53
2019-05-18T07:54:06.524Z,6.10
2019-05-18T07:56:36.887Z,6.60
2019-05-18T07:59:07.280Z,6.83
2019-05-18T08:01:37.689Z,5.17
2019-05-18T08:04:08.003Z,5.10
2019-05-18T08:06:38.386Z,5.30
2019-05-18T08:09:08.880Z,5.60
2019-05-18T08:11:39.278Z,5.00
2019-05-18T08:14:09.599Z,5.90
2019-05-18T08:16:39.957Z,5.47
2019-05-18T08:19:10.405Z,5.50
2019-05-18T08:21:52.911Z,5.57
2019-05-18T08:24:12.749Z,7.87
2019-05-18T08:26:43.552Z,5.87
2019-05-18T08:29:13.942Z,6.50
2019-05-18T08:31:44.298Z,7.23
2019-05-18T08:34:14.624Z,6.47
2019-05-18T08:36:45.008Z,7.03
2019-05-18T08:39:15.349Z,6.40
2019-05-18T08:41:48.601Z,6.70
2019-05-18T08:44:17.688Z,6.80
2019-05-18T08:46:49.158Z,6.67
2019-05-18T08:49:19.491Z,6.30
2019-05-18T08:51:49.950Z,6.00
2019-05-18T08:54:39.429Z,6.20
2019-05-18T08:57:09.820Z,6.63
2019-05-18T08:59:40.170Z,6.20
2019-05-18T09:02:10.583Z,5.50
2019-05-18T09:04:40.899Z,6.20
2019-05-18T09:07:11.266Z,5.57
2019-05-18T09:09:41.635Z,5.83
2019-05-18T09:12:12.103Z,5.63
2019-05-18T09:14:43.437Z,5.80
2019-05-18T09:17:13.818Z,5.20
2019-05-18T09:19:44.178Z,5.73
2019-05-18T09:22:22.854Z,6.03
2019-05-18T09:24:46.502Z,7.07
2019-05-18T09:27:16.865Z,6.60
2019-05-18T09:29:47.295Z,6.00
2019-05-18T09:32:17.670Z,6.03
2019-05-18T09:34:48.039Z,5.97
2019-05-18T09:37:18.400Z,5.07
2019-05-18T09:39:49.002Z,5.60
2019-05-18T09:42:19.374Z,5.70
2019-05-18T09:44:49.707Z,5.00
2019-05-18T09:47:20.103Z,5.63
2019-05-18T09:49:50.492Z,5.23
2019-05-18T09:52:20.836Z,5.00
2019-05-18T09:54:51.233Z,5.93
2019-05-18T09:57:21.679Z,5.50
2019-05-18T09:59:52.067Z,5.50
2019-05-18T10:02:22.426Z,5.60
2019-05-18T10:04:52.819Z,4.83
2019-05-18T10:07:23.243Z,4.70
2019-05-18T10:09:53.548Z,5.10
2019-05-18T10:12:24.816Z,6.03
2019-05-18T10:14:55.274Z,5.03
2019-05-18T10:17:25.666Z,5.33
2019-05-18T10:19:56.224Z,4.63
2019-05-18T10:22:26.610Z,4.67
2019-05-18T10:24:56.935Z,5.13
2019-05-18T10:27:27.308Z,4.30
2019-05-18T10:29:57.630Z,5.17
2019-05-18T10:32:27.992Z,4.17
2019-05-18T10:34:59.338Z,4.43
2019-05-18T10:37:29.711Z,4.10
2019-05-18T10:40:00.162Z,4.50
2019-05-18T10:42:34.214Z,4.60
2019-05-18T10:45:08.305Z,4.50
2019-05-18T10:47:39.943Z,5.23
2019-05-18T10:50:10.464Z,5.10
2019-05-18T10:52:40.851Z,4.83
2019-05-18T10:55:11.562Z,5.07
2019-05-18T10:57:42.415Z,4.73
2019-05-18T11:00:13.581Z,5.30
2019-05-18T11:02:43.982Z,4.73
2019-05-18T11:05:14.568Z,4.93
2019-05-18T11:07:44.937Z,4.90
2019-05-18T11:10:15.484Z,4.90
2019-05-18T11:12:45.939Z,5.17
2019-05-18T11:15:17.925Z,5.10
2019-05-18T11:17:48.256Z,5.00
2019-05-18T11:20:19.429Z,4.60
2019-05-18T11:22:49.801Z,7.40
2019-05-18T11:25:20.220Z,4.70
2019-05-18T11:27:55.247Z,6.07
2019-05-18T11:30:26.913Z,5.37
2019-05-18T11:33:00.772Z,4.80
2019-05-18T11:35:42.853Z,5.00
2019-05-18T11:38:18.480Z,5.03
2019-05-18T11:40:53.297Z,4.57
2019-05-18T11:43:23.742Z,4.20
2019-05-18T11:45:54.050Z,3.73
2019-05-18T11:48:26.273Z,4.20
2019-05-18T11:50:56.678Z,4.73
2019-05-18T11:53:27.107Z,5.03
2019-05-18T11:55:59.235Z,4.70
2019-05-18T11:58:29.670Z,4.30
2019-05-18T12:01:00.024Z,3.85
2019-05-18T12:03:30.465Z,4.72
2019-05-18T12:06:00.804Z,4.67
2019-05-18T12:08:31.172Z,3.77
2019-05-18T12:11:01.483Z,4.20
2019-05-18T12:13:34.088Z,4.85
2019-05-18T12:16:04.474Z,4.40
2019-05-18T12:18:34.840Z,4.12
2019-05-18T12:21:06.314Z,4.20
2019-05-18T12:23:36.683Z,3.90
2019-05-18T12:26:11.022Z,4.65
2019-05-18T12:28:41.449Z,4.50
2019-05-18T12:31:12.126Z,4.25
2019-05-18T12:33:42.499Z,3.75
2019-05-18T12:36:15.455Z,3.67
2019-05-18T12:38:44.886Z,3.42
2019-05-18T12:41:17.151Z,4.10
2019-05-18T12:43:47.592Z,3.60
2019-05-18T12:46:22.183Z,3.80
2019-05-18T12:48:53.002Z,4.10
2019-05-18T12:51:23.359Z,3.65
2019-05-18T12:53:53.716Z,4.20
2019-05-18T12:56:24.052Z,4.08
2019-05-18T12:58:54.428Z,4.40
2019-05-18T13:01:24.749Z,4.30
2019-05-18T13:03:55.118Z,4.75
2019-05-18T13:06:25.565Z,4.33
2019-05-18T13:08:55.936Z,4.73
2019-05-18T13:11:27.947Z,4.90
2019-05-18T13:13:58.310Z,4.95
2019-05-18T13:16:28.623Z,4.85
2019-05-18T13:18:59.030Z,3.70
2019-05-18T13:21:29.489Z,4.03
2019-05-18T13:23:59.971Z,4.43
2019-05-18T13:26:30.295Z,3.25
2019-05-18T13:29:00.637Z,4.50
2019-05-18T13:31:30.977Z,4.10
2019-05-18T13:34:01.344Z,4.22
2019-05-18T13:36:31.669Z,3.72
2019-05-18T13:39:02.049Z,4.50
2019-05-18T13:41:33.595Z,4.40
2019-05-18T13:44:03.947Z,4.85
2019-05-18T13:46:34.296Z,5.00
2019-05-18T13:49:07.180Z,4.97
2019-05-18T13:51:37.738Z,4.17
2019-05-18T13:54:08.171Z,4.12
2019-05-18T13:56:39.962Z,4.80
2019-05-18T13:59:10.457Z,4.17
2019-05-18T14:01:40.839Z,4.58
2019-05-18T14:04:11.251Z,4.58
2019-05-18T14:06:41.596Z,4.53
2019-05-18T14:09:12.285Z,3.90
2019-05-18T14:11:43.570Z,5.00
2019-05-18T14:14:13.935Z,4.22
2019-05-18T14:16:55.774Z,5.15
2019-05-18T14:19:26.188Z,5.28
2019-05-18T14:21:56.572Z,5.42
2019-05-18T14:24:26.951Z,5.47
2019-05-18T14:26:57.309Z,5.40
2019-05-18T14:29:27.771Z,6.40
2019-05-18T14:31:58.094Z,6.33
2019-05-18T14:34:28.476Z,5.80
2019-05-18T14:36:58.796Z,5.20
2019-05-18T14:39:40.270Z,4.97
2019-05-18T14:42:11.666Z,5.87
2019-05-18T14:44:49.912Z,5.37
2019-05-18T14:47:20.383Z,5.60
2019-05-18T14:49:50.826Z,1.70
2019-05-18T14:52:22.215Z,1.87
2019-05-18T14:54:52.582Z,2.00
2019-05-18T14:57:25.664Z,2.20
2019-05-18T14:59:54.905Z,2.27
2019-05-18T15:02:25.333Z,2.10
2019-05-18T15:04:57.017Z,1.97
2019-05-18T15:07:27.541Z,2.20
2019-05-18T15:09:57.930Z,2.70
2019-05-18T15:12:29.263Z,3.47
2019-05-18T15:14:59.616Z,3.70
2019-05-18T15:17:29.965Z,5.23
2019-05-18T15:20:00.344Z,5.50
2019-05-18T15:22:30.754Z,2.77
2019-05-18T15:25:01.193Z,1.70
2019-05-18T15:27:32.698Z,3.30
2019-05-18T15:30:03.185Z,3.70
2019-05-18T15:32:33.563Z,2.90
2019-05-18T15:35:04.143Z,3.60
2019-05-18T15:37:35.434Z,3.87
2019-05-18T15:40:06.540Z,3.07
2019-05-18T15:42:36.866Z,2.80
2019-05-18T15:45:07.366Z,2.70
2019-05-18T15:47:37.663Z,3.10
2019-05-18T15:50:08.595Z,3.70
2019-05-18T15:52:39.111Z,3.80
2019-05-18T15:55:09.889Z,3.97
2019-05-18T15:57:40.239Z,4.20
2019-05-18T16:00:11.305Z,5.63
2019-05-18T16:02:41.823Z,4.20
2019-05-18T16:05:12.613Z,4.10
2019-05-18T16:07:43.010Z,5.97
2019-05-18T16:10:14.144Z,5.57
2019-05-18T16:12:44.503Z,5.50
2019-05-18T16:15:16.084Z,5.70
2019-05-18T16:17:46.419Z,7.80
2019-05-18T16:20:18.521Z,14.23
2019-05-18T16:22:48.898Z,7.33
2019-05-18T16:25:19.284Z,8.37
2019-05-18T16:27:49.646Z,11.70
2019-05-18T16:30:20.177Z,11.57
2019-05-18T16:32:50.631Z,16.17
2019-05-18T16:35:21.119Z,9.90
2019-05-18T16:37:51.521Z,12.03
2019-05-18T16:40:22.168Z,12.00
2019-05-18T16:42:52.536Z,11.80
2019-05-18T16:45:23.007Z,12.40
2019-05-18T16:47:53.339Z,13.83
2019-05-18T16:50:23.739Z,13.53
2019-05-18T16:52:54.071Z,13.67
2019-05-18T16:55:24.468Z,11.40
2019-05-18T16:57:54.794Z,8.27
2019-05-18T17:00:25.286Z,11.47
2019-05-18T17:02:55.742Z,13.50
2019-05-18T17:05:26.257Z,8.90
2019-05-18T17:07:56.840Z,8.70
2019-05-18T17:10:27.341Z,8.67
2019-05-18T17:12:57.780Z,8.50
2019-05-18T17:15:28.213Z,8.60
2019-05-18T17:17:58.726Z,10.10
2019-05-18T17:20:29.174Z,11.67
2019-05-18T17:22:59.590Z,9.13
2019-05-18T17:25:30.119Z,9.50
2019-05-18T17:28:00.618Z,10.27
2019-05-18T17:30:30.990Z,8.90
2019-05-18T17:33:01.336Z,10.43
2019-05-18T17:35:31.781Z,9.37
2019-05-18T17:38:02.104Z,9.73
2019-05-18T17:40:32.484Z,9.60
2019-05-18T17:43:02.800Z,7.47
2019-05-18T17:45:33.285Z,7.43
2019-05-18T17:48:03.817Z,9.60
2019-05-18T17:50:34.238Z,10.30
2019-05-18T17:53:04.787Z,8.20
2019-05-18T17:55:35.151Z,8.70
2019-05-18T17:58:05.547Z,8.80
2019-05-18T18:00:35.982Z,8.27
2019-05-18T18:03:06.572Z,7.03
2019-05-18T18:05:37.169Z,7.13
2019-05-18T18:08:07.534Z,7.40
2019-05-18T18:10:37.931Z,8.20
2019-05-18T18:13:09.641Z,8.03
2019-05-18T18:15:40.088Z,9.07
2019-05-18T18:18:10.440Z,7.90
2019-05-18T18:20:40.817Z,9.33
2019-05-18T18:23:11.306Z,8.87
2019-05-18T18:25:41.692Z,8.50
2019-05-18T18:28:12.083Z,8.70
2019-05-18T18:30:42.484Z,7.50
2019-05-18T18:33:13.010Z,7.10
2019-05-18T18:35:43.537Z,14.03
2019-05-18T18:38:13.955Z,9.13
2019-05-18T18:40:44.735Z,8.40
2019-05-18T18:43:15.178Z,8.77
2019-05-18T18:45:45.571Z,8.47
2019-05-18T18:48:16.011Z,13.40
2019-05-18T18:50:46.676Z,9.07
2019-05-18T18:53:18.004Z,9.83
2019-05-18T18:55:48.337Z,9.03
2019-05-18T18:58:19.028Z,9.70
2019-05-18T19:00:49.512Z,12.20
2019-05-18T19:03:19.932Z,27.97
2019-05-18T19:05:50.769Z,22.73
2019-05-18T19:08:21.789Z,16.87
2019-05-18T19:10:53.092Z,15.13
2019-05-18T19:13:24.341Z,11.80
2019-05-18T19:15:55.536Z,10.43
2019-05-18T19:18:26.995Z,10.97
2019-05-18T19:20:57.774Z,9.93
2019-05-18T19:23:28.226Z,8.77
2019-05-18T19:25:58.528Z,11.00
2019-05-18T19:28:28.997Z,8.73
2019-05-18T19:30:59.394Z,9.50
2019-05-18T19:33:29.811Z,9.00
2019-05-18T19:36:00.139Z,9.47
2019-05-18T19:38:30.672Z,9.97
2019-05-18T19:41:01.024Z,11.23
2019-05-18T19:43:31.675Z,10.33
2019-05-18T19:46:03.014Z,8.97
2019-05-18T19:48:33.381Z,8.10
2019-05-18T19:51:03.715Z,10.10
2019-05-18T19:53:34.163Z,11.87
2019-05-18T19:56:04.535Z,13.60
2019-05-18T19:58:35.000Z,10.67
2019-05-18T20:01:05.368Z,9.67
2019-05-18T20:03:36.692Z,8.77
2019-05-18T20:06:07.067Z,9.20
2019-05-18T20:08:37.469Z,9.83
2019-05-18T20:11:07.853Z,10.43
2019-05-18T20:13:38.382Z,15.40
2019-05-18T20:16:08.797Z,13.27
2019-05-18T20:18:39.324Z,14.03
2019-05-18T20:21:10.059Z,13.10
2019-05-18T20:23:40.621Z,10.00
2019-05-18T20:26:11.039Z,11.87
2019-05-18T20:28:56.800Z,10.70
2019-05-18T20:31:27.191Z,11.87
2019-05-18T20:33:57.563Z,11.87
2019-05-18T20:36:28.107Z,12.27
2019-05-18T20:38:58.435Z,12.83
2019-05-18T20:41:28.852Z,12.70
2019-05-18T20:43:59.282Z,11.57
2019-05-18T20:46:29.733Z,13.87
2019-05-18T20:49:00.206Z,14.37
2019-05-18T20:51:30.680Z,16.80
2019-05-18T20:54:01.114Z,19.93
2019-05-18T20:56:31.612Z,14.67
2019-05-18T20:59:01.923Z,14.63
2019-05-18T21:01:32.438Z,14.07
2019-05-18T21:04:02.828Z,14.77
2019-05-18T21:06:33.238Z,15.87
2019-05-18T21:09:04.796Z,17.47
2019-05-18T21:11:36.377Z,20.43
2019-05-18T21:14:06.810Z,21.83
2019-05-18T21:16:37.406Z,22.60
2019-05-18T21:19:07.820Z,20.90
2019-05-18T21:21:38.366Z,20.57
2019-05-18T21:24:08.767Z,20.03
2019-05-18T21:26:40.009Z,22.13
2019-05-18T21:29:10.436Z,22.77
2019-05-18T21:31:42.064Z,22.90
2019-05-18T21:34:12.560Z,24.70
2019-05-18T21:36:43.925Z,27.33
2019-05-18T21:39:14.355Z,28.60
2019-05-18T21:41:44.718Z,29.47
2019-05-18T21:44:15.048Z,28.07
2019-05-18T21:46:45.500Z,31.17
2019-05-18T21:49:15.847Z,28.50
2019-05-18T21:51:46.220Z,28.00
2019-05-18T21:54:16.547Z,27.87
2019-05-18T21:56:47.188Z,27.30
2019-05-18T21:59:17.508Z,29.03
2019-05-18T22:01:48.004Z,28.87
2019-05-18T22:04:18.341Z,28.67
2019-05-18T22:06:48.825Z,27.77
2019-05-18T22:09:19.117Z,27.80
2019-05-18T22:11:49.507Z,27.40
2019-05-18T22:14:19.928Z,31.57
2019-05-18T22:16:50.291Z,31.53
2019-05-18T22:19:20.635Z,33.90
2019-05-18T22:21:51.111Z,32.23
2019-05-18T22:24:21.530Z,32.77
2019-05-18T22:26:51.910Z,35.03
2019-05-18T22:29:24.606Z,38.20
2019-05-18T22:31:57.992Z,39.63
2019-05-18T22:34:31.515Z,39.40
2019-05-18T22:37:05.211Z,40.13
2019-05-18T22:39:37.236Z,40.20
2019-05-18T22:42:07.599Z,42.77
2019-05-18T22:44:37.931Z,41.50
2019-05-18T22:47:08.312Z,45.00
2019-05-18T22:49:38.629Z,45.40
2019-05-18T22:52:09.020Z,45.40
2019-05-18T22:54:41.436Z,47.10
2019-05-18T22:57:12.028Z,49.00
2019-05-18T22:59:42.368Z,49.70
2019-05-18T23:02:12.752Z,49.17
2019-05-18T23:04:43.854Z,50.63
2019-05-18T23:07:14.379Z,48.60
2019-05-18T23:09:44.732Z,50.47
2019-05-18T23:12:15.134Z,49.50
2019-05-18T23:14:45.489Z,49.60
2019-05-18T23:17:15.889Z,51.63
2019-05-18T23:19:46.244Z,51.50
2019-05-18T23:22:16.687Z,50.13
2019-05-18T23:24:47.022Z,52.57
2019-05-18T23:27:17.390Z,49.87
2019-05-18T23:29:47.718Z,50.10
2019-05-18T23:32:18.165Z,48.73
2019-05-18T23:34:48.512Z,48.80
2019-05-18T23:37:18.983Z,47.47
2019-05-18T23:39:49.334Z,48.30
2019-05-18T23:42:19.707Z,51.43
2019-05-18T23:44:51.161Z,54.27
2019-05-18T23:47:21.555Z,52.43
2019-05-18T23:49:51.881Z,48.57
2019-05-18T23:52:22.333Z,48.07
2019-05-18T23:54:52.682Z,49.63
2019-05-18T23:57:23.091Z,52.13
2019-05-18T23:59:53.437Z,51.00
